sensor_id;sensor_type;location;lat;lon;timestamp;pressure;altitude;pressure_sealevel;temperature;humidity
23166;BME280;11751;42.700;24.170;2023-10-09T00:02:02;94375.59;;;17.99;nan
23166;BME280;11751;42.700;24.170;2023-10-09T00:04:31;94374.88;;;17.79;nan
23166;BME280;11751;42.700;24.170;2023-10-09T00:06:56;94370.09;;;17.91;nan
23166;BME280;11751;42.700;24.170;2023-10-09T00:09:24;94378.91;;;17.86;nan
23166;BME280;11751;42.700;24.170;2023-10-09T00:11:50;94376.66;;;17.84;nan
23166;BME280;11751;42.700;24.170;2023-10-09T00:14:27;94367.91;;;17.71;nan
23166;BME280;11751;42.700;24.170;2023-10-09T00:16:56;94379.38;;;17.63;nan
23166;BME280;11751;42.700;24.170;2023-10-09T00:19:29;94392.63;;;17.32;nan
23166;BME280;11751;42.700;24.170;2023-10-09T00:21:58;94397.50;;;17.22;nan
23166;BME280;11751;42.700;24.170;2023-10-09T00:24:29;94381.97;;;17.14;nan
23166;BME280;11751;42.700;24.170;2023-10-09T00:26:54;94373.66;;;17.16;nan
23166;BME280;11751;42.700;24.170;2023-10-09T00:29:39;94357.56;;;17.18;nan
23166;BME280;11751;42.700;24.170;2023-10-09T00:32:12;94358.16;;;17.08;nan
23166;BME280;11751;42.700;24.170;2023-10-09T00:34:58;94365.59;;;17.13;nan
23166;BME280;11751;42.700;24.170;2023-10-09T00:37:24;94366.50;;;17.06;nan
23166;BME280;11751;42.700;24.170;2023-10-09T00:39:59;94366.75;;;16.91;nan
23166;BME280;11751;42.700;24.170;2023-10-09T00:42:24;94381.06;;;16.93;nan
23166;BME280;11751;42.700;24.170;2023-10-09T00:45:00;94397.41;;;16.85;nan
23166;BME280;11751;42.700;24.170;2023-10-09T00:47:30;94393.75;;;17.01;nan
23166;BME280;11751;42.700;24.170;2023-10-09T00:50:09;94397.72;;;16.89;nan
23166;BME280;11751;42.700;24.170;2023-10-09T00:52:44;94394.59;;;16.94;nan
23166;BME280;11751;42.700;24.170;2023-10-09T00:55:19;94394.75;;;16.87;nan
23166;BME280;11751;42.700;24.170;2023-10-09T00:58:05;94395.59;;;16.80;nan
23166;BME280;11751;42.700;24.170;2023-10-09T01:00:37;94381.00;;;16.74;nan
23166;BME280;11751;42.700;24.170;2023-10-09T01:03:09;94389.66;;;16.76;nan
23166;BME280;11751;42.700;24.170;2023-10-09T01:08:18;94398.84;;;16.67;nan
23166;BME280;11751;42.700;24.170;2023-10-09T01:10:51;94398.72;;;16.74;nan
23166;BME280;11751;42.700;24.170;2023-10-09T01:13:23;94401.41;;;16.72;nan
23166;BME280;11751;42.700;24.170;2023-10-09T01:15:54;94426.25;;;16.74;nan
23166;BME280;11751;42.700;24.170;2023-10-09T01:18:25;94425.53;;;16.73;nan
23166;BME280;11751;42.700;24.170;2023-10-09T01:20:57;94434.75;;;16.74;nan
23166;BME280;11751;42.700;24.170;2023-10-09T01:23:23;94437.38;;;16.62;nan
23166;BME280;11751;42.700;24.170;2023-10-09T01:25:48;94444.41;;;16.71;nan
23166;BME280;11751;42.700;24.170;2023-10-09T01:28:15;94444.53;;;16.37;nan
23166;BME280;11751;42.700;24.170;2023-10-09T01:30:42;94443.09;;;16.45;nan
23166;BME280;11751;42.700;24.170;2023-10-09T01:33:08;94446.78;;;16.38;nan
23166;BME280;11751;42.700;24.170;2023-10-09T01:35:47;94437.94;;;16.08;nan
23166;BME280;11751;42.700;24.170;2023-10-09T01:38:16;94443.75;;;16.10;nan
23166;BME280;11751;42.700;24.170;2023-10-09T01:40:42;94444.13;;;15.97;nan
23166;BME280;11751;42.700;24.170;2023-10-09T01:43:09;94447.66;;;16.15;nan
23166;BME280;11751;42.700;24.170;2023-10-09T01:45:38;94452.25;;;16.10;nan
23166;BME280;11751;42.700;24.170;2023-10-09T01:48:12;94466.03;;;16.06;nan
23166;BME280;11751;42.700;24.170;2023-10-09T01:50:40;94468.13;;;15.89;nan
23166;BME280;11751;42.700;24.170;2023-10-09T01:53:07;94484.00;;;15.67;nan
23166;BME280;11751;42.700;24.170;2023-10-09T01:55:34;94477.22;;;15.70;nan
23166;BME280;11751;42.700;24.170;2023-10-09T01:58:00;94474.63;;;15.65;nan
23166;BME280;11751;42.700;24.170;2023-10-09T02:00:31;94473.63;;;15.53;nan
23166;BME280;11751;42.700;24.170;2023-10-09T02:03:01;94476.34;;;15.27;nan
23166;BME280;11751;42.700;24.170;2023-10-09T02:05:30;94479.00;;;15.25;nan
23166;BME280;11751;42.700;24.170;2023-10-09T02:07:58;94464.78;;;15.15;nan
23166;BME280;11751;42.700;24.170;2023-10-09T02:10:24;94481.28;;;15.19;nan
23166;BME280;11751;42.700;24.170;2023-10-09T02:12:50;94468.16;;;15.14;nan
23166;BME280;11751;42.700;24.170;2023-10-09T02:15:23;94472.25;;;14.96;nan
23166;BME280;11751;42.700;24.170;2023-10-09T02:18:06;94479.22;;;14.95;nan
23166;BME280;11751;42.700;24.170;2023-10-09T02:20:44;94477.41;;;14.90;nan
23166;BME280;11751;42.700;24.170;2023-10-09T02:23:11;94481.19;;;14.85;nan
23166;BME280;11751;42.700;24.170;2023-10-09T02:25:50;94488.72;;;14.82;nan
23166;BME280;11751;42.700;24.170;2023-10-09T02:28:18;94494.72;;;14.86;nan
23166;BME280;11751;42.700;24.170;2023-10-09T02:30:47;94495.38;;;14.77;nan
23166;BME280;11751;42.700;24.170;2023-10-09T02:33:16;94493.31;;;14.70;nan
23166;BME280;11751;42.700;24.170;2023-10-09T02:35:56;94497.88;;;14.66;nan
23166;BME280;11751;42.700;24.170;2023-10-09T02:38:25;94490.03;;;14.57;nan
23166;BME280;11751;42.700;24.170;2023-10-09T02:40:51;94479.50;;;14.33;nan
23166;BME280;11751;42.700;24.170;2023-10-09T02:43:30;94488.28;;;14.37;nan
23166;BME280;11751;42.700;24.170;2023-10-09T02:46:02;94483.97;;;14.36;nan
23166;BME280;11751;42.700;24.170;2023-10-09T02:48:47;94480.66;;;14.30;nan
23166;BME280;11751;42.700;24.170;2023-10-09T02:51:26;94492.88;;;14.25;nan
23166;BME280;11751;42.700;24.170;2023-10-09T02:53:53;94503.19;;;14.30;nan
23166;BME280;11751;42.700;24.170;2023-10-09T02:56:20;94516.06;;;14.41;nan
23166;BME280;11751;42.700;24.170;2023-10-09T02:58:52;94509.47;;;14.46;nan
23166;BME280;11751;42.700;24.170;2023-10-09T03:01:17;94513.47;;;14.35;nan
23166;BME280;11751;42.700;24.170;2023-10-09T03:03:43;94524.09;;;14.52;nan
23166;BME280;11751;42.700;24.170;2023-10-09T03:06:13;94514.13;;;14.51;nan
23166;BME280;11751;42.700;24.170;2023-10-09T03:08:44;94533.38;;;14.37;nan
23166;BME280;11751;42.700;24.170;2023-10-09T03:11:13;94523.50;;;14.21;nan
23166;BME280;11751;42.700;24.170;2023-10-09T03:13:42;94532.31;;;14.25;nan
23166;BME280;11751;42.700;24.170;2023-10-09T03:16:13;94529.00;;;14.12;nan
23166;BME280;11751;42.700;24.170;2023-10-09T03:18:52;94530.84;;;14.17;nan
23166;BME280;11751;42.700;24.170;2023-10-09T03:21:21;94540.59;;;14.23;nan
23166;BME280;11751;42.700;24.170;2023-10-09T03:23:47;94541.09;;;14.37;nan
23166;BME280;11751;42.700;24.170;2023-10-09T03:26:17;94546.16;;;14.31;nan
23166;BME280;11751;42.700;24.170;2023-10-09T03:28:49;94549.56;;;14.29;nan
23166;BME280;11751;42.700;24.170;2023-10-09T03:31:14;94534.97;;;14.08;nan
23166;BME280;11751;42.700;24.170;2023-10-09T03:33:40;94549.25;;;14.10;nan
23166;BME280;11751;42.700;24.170;2023-10-09T03:36:06;94545.84;;;14.27;nan
23166;BME280;11751;42.700;24.170;2023-10-09T03:38:37;94550.34;;;14.22;nan
23166;BME280;11751;42.700;24.170;2023-10-09T03:41:05;94557.09;;;14.27;nan
23166;BME280;11751;42.700;24.170;2023-10-09T03:43:35;94549.75;;;14.31;nan
23166;BME280;11751;42.700;24.170;2023-10-09T03:46:08;94559.31;;;14.36;nan
23166;BME280;11751;42.700;24.170;2023-10-09T03:48:49;94569.50;;;14.24;nan
23166;BME280;11751;42.700;24.170;2023-10-09T03:51:15;94574.41;;;14.08;nan
23166;BME280;11751;42.700;24.170;2023-10-09T03:53:50;94581.19;;;14.13;nan
23166;BME280;11751;42.700;24.170;2023-10-09T03:56:16;94583.13;;;13.88;nan
23166;BME280;11751;42.700;24.170;2023-10-09T03:58:46;94585.34;;;14.04;nan
23166;BME280;11751;42.700;24.170;2023-10-09T04:01:13;94588.00;;;13.87;nan
23166;BME280;11751;42.700;24.170;2023-10-09T04:03:59;94580.31;;;13.80;nan
23166;BME280;11751;42.700;24.170;2023-10-09T04:06:25;94591.38;;;13.78;nan
23166;BME280;11751;42.700;24.170;2023-10-09T04:08:57;94581.66;;;13.72;nan
23166;BME280;11751;42.700;24.170;2023-10-09T04:11:24;94587.25;;;13.79;nan
23166;BME280;11751;42.700;24.170;2023-10-09T04:13:50;94588.75;;;13.80;nan
23166;BME280;11751;42.700;24.170;2023-10-09T04:16:18;94597.78;;;13.79;nan
23166;BME280;11751;42.700;24.170;2023-10-09T04:18:56;94595.50;;;13.77;nan
23166;BME280;11751;42.700;24.170;2023-10-09T04:21:25;94597.06;;;13.64;nan
23166;BME280;11751;42.700;24.170;2023-10-09T04:24:03;94601.72;;;13.61;nan
23166;BME280;11751;42.700;24.170;2023-10-09T04:26:45;94598.75;;;13.59;nan
23166;BME280;11751;42.700;24.170;2023-10-09T04:29:14;94597.44;;;13.45;nan
23166;BME280;11751;42.700;24.170;2023-10-09T04:31:49;94599.88;;;13.64;nan
23166;BME280;11751;42.700;24.170;2023-10-09T04:34:19;94606.06;;;13.62;nan
23166;BME280;11751;42.700;24.170;2023-10-09T04:36:50;94613.00;;;13.46;nan
23166;BME280;11751;42.700;24.170;2023-10-09T04:39:21;94618.63;;;13.16;nan
23166;BME280;11751;42.700;24.170;2023-10-09T04:41:56;94595.41;;;13.31;nan
23166;BME280;11751;42.700;24.170;2023-10-09T04:44:41;94590.72;;;13.26;nan
23166;BME280;11751;42.700;24.170;2023-10-09T04:47:28;94603.66;;;13.14;nan
23166;BME280;11751;42.700;24.170;2023-10-09T04:50:15;94585.09;;;13.11;nan
23166;BME280;11751;42.700;24.170;2023-10-09T04:52:44;94584.34;;;13.03;nan
23166;BME280;11751;42.700;24.170;2023-10-09T04:55:09;94571.41;;;13.00;nan
23166;BME280;11751;42.700;24.170;2023-10-09T04:57:46;94574.03;;;13.05;nan
23166;BME280;11751;42.700;24.170;2023-10-09T05:00:26;94585.84;;;13.04;nan
23166;BME280;11751;42.700;24.170;2023-10-09T05:02:56;94586.78;;;13.14;nan
23166;BME280;11751;42.700;24.170;2023-10-09T05:05:24;94584.69;;;13.37;nan
23166;BME280;11751;42.700;24.170;2023-10-09T05:10:48;94591.09;;;13.45;nan
23166;BME280;11751;42.700;24.170;2023-10-09T05:13:33;94605.88;;;13.60;nan
23166;BME280;11751;42.700;24.170;2023-10-09T05:16:06;94604.94;;;13.65;nan
23166;BME280;11751;42.700;24.170;2023-10-09T05:18:49;94600.59;;;13.71;nan
23166;BME280;11751;42.700;24.170;2023-10-09T05:21:38;94597.06;;;13.64;nan
23166;BME280;11751;42.700;24.170;2023-10-09T05:24:07;94603.44;;;13.64;nan
23166;BME280;11751;42.700;24.170;2023-10-09T05:29:10;94616.59;;;13.32;nan
23166;BME280;11751;42.700;24.170;2023-10-09T05:32:05;94631.41;;;13.25;nan
23166;BME280;11751;42.700;24.170;2023-10-09T05:34:46;94629.91;;;13.24;nan
23166;BME280;11751;42.700;24.170;2023-10-09T05:37:31;94639.44;;;13.21;nan
23166;BME280;11751;42.700;24.170;2023-10-09T05:40:03;94635.53;;;13.24;nan
23166;BME280;11751;42.700;24.170;2023-10-09T05:42:41;94644.16;;;13.26;nan
23166;BME280;11751;42.700;24.170;2023-10-09T05:45:16;94652.22;;;13.29;nan
23166;BME280;11751;42.700;24.170;2023-10-09T05:47:52;94647.34;;;13.30;nan
23166;BME280;11751;42.700;24.170;2023-10-09T05:50:36;94653.53;;;13.36;nan
23166;BME280;11751;42.700;24.170;2023-10-09T05:53:24;94667.00;;;13.15;nan
23166;BME280;11751;42.700;24.170;2023-10-09T05:56:13;94663.44;;;13.37;nan
23166;BME280;11751;42.700;24.170;2023-10-09T05:58:56;94678.81;;;13.21;nan
23166;BME280;11751;42.700;24.170;2023-10-09T06:01:31;94680.53;;;13.24;nan
23166;BME280;11751;42.700;24.170;2023-10-09T06:04:25;94691.22;;;13.33;nan
23166;BME280;11751;42.700;24.170;2023-10-09T06:07:10;94690.09;;;13.36;nan
23166;BME280;11751;42.700;24.170;2023-10-09T06:09:39;94699.47;;;13.31;nan
23166;BME280;11751;42.700;24.170;2023-10-09T06:12:19;94703.22;;;13.26;nan
23166;BME280;11751;42.700;24.170;2023-10-09T06:15:15;94708.84;;;13.26;nan
23166;BME280;11751;42.700;24.170;2023-10-09T06:17:59;94707.16;;;13.30;nan
23166;BME280;11751;42.700;24.170;2023-10-09T06:20:44;94724.97;;;13.48;nan
23166;BME280;11751;42.700;24.170;2023-10-09T06:23:30;94729.88;;;13.69;nan
23166;BME280;11751;42.700;24.170;2023-10-09T06:26:33;94720.88;;;13.78;nan
23166;BME280;11751;42.700;24.170;2023-10-09T06:28:59;94736.63;;;13.96;nan
23166;BME280;11751;42.700;24.170;2023-10-09T06:31:39;94734.56;;;14.19;nan
23166;BME280;11751;42.700;24.170;2023-10-09T06:34:27;94731.34;;;14.38;nan
23166;BME280;11751;42.700;24.170;2023-10-09T06:37:00;94728.53;;;14.38;nan
23166;BME280;11751;42.700;24.170;2023-10-09T06:39:34;94727.94;;;14.47;nan
23166;BME280;11751;42.700;24.170;2023-10-09T06:42:24;94735.63;;;14.61;nan
23166;BME280;11751;42.700;24.170;2023-10-09T06:45:02;94730.53;;;14.59;nan
23166;BME280;11751;42.700;24.170;2023-10-09T06:47:39;94740.31;;;14.58;nan
23166;BME280;11751;42.700;24.170;2023-10-09T06:50:21;94742.16;;;14.71;nan
23166;BME280;11751;42.700;24.170;2023-10-09T06:52:47;94724.47;;;14.78;nan
23166;BME280;11751;42.700;24.170;2023-10-09T06:55:38;94736.03;;;14.97;nan
23166;BME280;11751;42.700;24.170;2023-10-09T06:58:19;94745.47;;;15.24;nan
23166;BME280;11751;42.700;24.170;2023-10-09T07:00:52;94741.94;;;15.31;nan
23166;BME280;11751;42.700;24.170;2023-10-09T07:03:27;94744.03;;;15.54;nan
23166;BME280;11751;42.700;24.170;2023-10-09T07:06:05;94746.69;;;15.77;nan
23166;BME280;11751;42.700;24.170;2023-10-09T07:08:35;94752.34;;;16.01;nan
23166;BME280;11751;42.700;24.170;2023-10-09T07:11:04;94744.47;;;16.17;nan
23166;BME280;11751;42.700;24.170;2023-10-09T07:13:48;94750.13;;;16.41;nan
23166;BME280;11751;42.700;24.170;2023-10-09T07:16:21;94757.63;;;16.46;nan
23166;BME280;11751;42.700;24.170;2023-10-09T07:18:55;94762.59;;;16.38;nan
23166;BME280;11751;42.700;24.170;2023-10-09T07:21:20;94755.28;;;16.52;nan
23166;BME280;11751;42.700;24.170;2023-10-09T07:23:54;94751.97;;;16.63;nan
23166;BME280;11751;42.700;24.170;2023-10-09T07:26:24;94747.09;;;16.63;nan
23166;BME280;11751;42.700;24.170;2023-10-09T07:29:03;94735.78;;;16.63;nan
23166;BME280;11751;42.700;24.170;2023-10-09T07:31:42;94743.84;;;16.84;nan
23166;BME280;11751;42.700;24.170;2023-10-09T07:34:11;94732.59;;;16.93;nan
23166;BME280;11751;42.700;24.170;2023-10-09T07:36:55;94740.31;;;17.10;nan
23166;BME280;11751;42.700;24.170;2023-10-09T07:39:22;94738.47;;;17.21;nan
23166;BME280;11751;42.700;24.170;2023-10-09T07:41:48;94753.28;;;17.29;nan
23166;BME280;11751;42.700;24.170;2023-10-09T07:44:41;94746.03;;;17.36;nan
23166;BME280;11751;42.700;24.170;2023-10-09T07:47:11;94739.47;;;17.16;nan
23166;BME280;11751;42.700;24.170;2023-10-09T07:49:43;94741.28;;;17.21;nan
23166;BME280;11751;42.700;24.170;2023-10-09T07:52:14;94732.78;;;17.65;nan
23166;BME280;11751;42.700;24.170;2023-10-09T07:54:40;94743.56;;;17.66;nan
23166;BME280;11751;42.700;24.170;2023-10-09T07:57:15;94739.84;;;17.73;nan
23166;BME280;11751;42.700;24.170;2023-10-09T07:59:43;94728.81;;;17.77;nan
23166;BME280;11751;42.700;24.170;2023-10-09T08:02:27;94733.38;;;17.90;nan
23166;BME280;11751;42.700;24.170;2023-10-09T08:05:02;94725.66;;;18.09;nan
23166;BME280;11751;42.700;24.170;2023-10-09T08:07:32;94725.31;;;18.22;nan
23166;BME280;11751;42.700;24.170;2023-10-09T08:10:04;94730.56;;;18.35;nan
23166;BME280;11751;42.700;24.170;2023-10-09T08:12:39;94713.59;;;18.54;nan
23166;BME280;11751;42.700;24.170;2023-10-09T08:15:24;94719.38;;;18.56;nan
23166;BME280;11751;42.700;24.170;2023-10-09T08:18:00;94734.50;;;18.68;nan
23166;BME280;11751;42.700;24.170;2023-10-09T08:20:43;94738.81;;;18.69;nan
23166;BME280;11751;42.700;24.170;2023-10-09T08:23:38;94746.88;;;18.72;nan
23166;BME280;11751;42.700;24.170;2023-10-09T08:26:18;94741.44;;;18.29;nan
23166;BME280;11751;42.700;24.170;2023-10-09T08:28:54;94734.94;;;18.19;nan
23166;BME280;11751;42.700;24.170;2023-10-09T08:31:40;94729.97;;;18.46;nan
23166;BME280;11751;42.700;24.170;2023-10-09T08:34:14;94741.06;;;18.61;nan
23166;BME280;11751;42.700;24.170;2023-10-09T08:36:50;94731.22;;;18.81;nan
23166;BME280;11751;42.700;24.170;2023-10-09T08:39:21;94730.03;;;18.65;nan
23166;BME280;11751;42.700;24.170;2023-10-09T08:41:54;94724.81;;;18.71;nan
23166;BME280;11751;42.700;24.170;2023-10-09T08:44:24;94720.47;;;18.88;nan
23166;BME280;11751;42.700;24.170;2023-10-09T08:46:54;94711.97;;;19.07;nan
23166;BME280;11751;42.700;24.170;2023-10-09T08:49:21;94716.28;;;19.08;nan
23166;BME280;11751;42.700;24.170;2023-10-09T08:51:47;94711.38;;;19.18;nan
23166;BME280;11751;42.700;24.170;2023-10-09T08:54:13;94707.50;;;18.95;nan
23166;BME280;11751;42.700;24.170;2023-10-09T08:56:43;94684.19;;;19.06;nan
23166;BME280;11751;42.700;24.170;2023-10-09T08:59:18;94699.38;;;19.39;nan
23166;BME280;11751;42.700;24.170;2023-10-09T09:01:50;94703.25;;;19.53;nan
23166;BME280;11751;42.700;24.170;2023-10-09T09:07:05;94691.94;;;19.83;nan
23166;BME280;11751;42.700;24.170;2023-10-09T09:09:32;94699.34;;;20.07;nan
23166;BME280;11751;42.700;24.170;2023-10-09T09:11:59;94693.81;;;19.60;nan
23166;BME280;11751;42.700;24.170;2023-10-09T09:14:38;94690.88;;;19.88;nan
23166;BME280;11751;42.700;24.170;2023-10-09T09:17:05;94693.41;;;19.84;nan
23166;BME280;11751;42.700;24.170;2023-10-09T09:19:36;94688.19;;;19.80;nan
23166;BME280;11751;42.700;24.170;2023-10-09T09:22:03;94689.78;;;19.93;nan
23166;BME280;11751;42.700;24.170;2023-10-09T09:24:38;94696.84;;;19.92;nan
23166;BME280;11751;42.700;24.170;2023-10-09T09:27:05;94675.16;;;19.87;nan
23166;BME280;11751;42.700;24.170;2023-10-09T09:29:44;94684.44;;;19.97;nan
23166;BME280;11751;42.700;24.170;2023-10-09T09:32:26;94673.06;;;19.97;nan
23166;BME280;11751;42.700;24.170;2023-10-09T09:34:56;94677.72;;;19.83;nan
23166;BME280;11751;42.700;24.170;2023-10-09T09:37:30;94658.19;;;19.68;nan
23166;BME280;11751;42.700;24.170;2023-10-09T09:40:15;94668.47;;;19.33;nan
23166;BME280;11751;42.700;24.170;2023-10-09T09:42:57;94677.88;;;19.85;nan
23166;BME280;11751;42.700;24.170;2023-10-09T09:45:28;94673.91;;;20.09;nan
23166;BME280;11751;42.700;24.170;2023-10-09T09:47:54;94672.00;;;20.23;nan
23166;BME280;11751;42.700;24.170;2023-10-09T09:50:23;94674.81;;;20.32;nan
23166;BME280;11751;42.700;24.170;2023-10-09T09:52:54;94670.81;;;20.26;nan
23166;BME280;11751;42.700;24.170;2023-10-09T09:55:24;94662.16;;;20.45;nan
23166;BME280;11751;42.700;24.170;2023-10-09T09:57:56;94655.44;;;20.61;nan
23166;BME280;11751;42.700;24.170;2023-10-09T10:00:24;94654.09;;;20.41;nan
23166;BME280;11751;42.700;24.170;2023-10-09T10:03:11;94653.56;;;20.33;nan
23166;BME280;11751;42.700;24.170;2023-10-09T10:05:40;94655.78;;;20.35;nan
23166;BME280;11751;42.700;24.170;2023-10-09T10:08:07;94656.00;;;20.48;nan
23166;BME280;11751;42.700;24.170;2023-10-09T10:10:39;94644.06;;;20.61;nan
23166;BME280;11751;42.700;24.170;2023-10-09T10:13:13;94636.59;;;20.56;nan
23166;BME280;11751;42.700;24.170;2023-10-09T10:18:29;94624.50;;;20.56;nan
23166;BME280;11751;42.700;24.170;2023-10-09T10:23:39;94607.88;;;20.73;nan
23166;BME280;11751;42.700;24.170;2023-10-09T10:26:18;94604.41;;;20.74;nan
23166;BME280;11751;42.700;24.170;2023-10-09T10:29:14;94612.81;;;20.93;nan
23166;BME280;11751;42.700;24.170;2023-10-09T10:37:39;94584.84;;;20.69;nan
23166;BME280;11751;42.700;24.170;2023-10-09T10:40:23;94584.03;;;20.78;nan
23166;BME280;11751;42.700;24.170;2023-10-09T10:43:04;94577.84;;;20.81;nan
23166;BME280;11751;42.700;24.170;2023-10-09T10:45:38;94569.00;;;20.98;nan
23166;BME280;11751;42.700;24.170;2023-10-09T10:48:09;94580.84;;;20.83;nan
23166;BME280;11751;42.700;24.170;2023-10-09T10:50:50;94579.16;;;21.01;nan
23166;BME280;11751;42.700;24.170;2023-10-09T10:53:22;94574.16;;;20.90;nan
23166;BME280;11751;42.700;24.170;2023-10-09T10:55:59;94563.94;;;20.76;nan
23166;BME280;11751;42.700;24.170;2023-10-09T10:58:40;94541.75;;;20.95;nan
23166;BME280;11751;42.700;24.170;2023-10-09T11:01:30;94535.84;;;21.03;nan
23166;BME280;11751;42.700;24.170;2023-10-09T11:04:16;94550.22;;;21.16;nan
23166;BME280;11751;42.700;24.170;2023-10-09T11:06:51;94558.78;;;21.39;nan
23166;BME280;11751;42.700;24.170;2023-10-09T11:09:16;94556.34;;;21.34;nan
23166;BME280;11751;42.700;24.170;2023-10-09T11:11:51;94543.81;;;21.50;nan
23166;BME280;11751;42.700;24.170;2023-10-09T11:14:20;94551.50;;;21.48;nan
23166;BME280;11751;42.700;24.170;2023-10-09T11:16:52;94544.06;;;21.54;nan
23166;BME280;11751;42.700;24.170;2023-10-09T11:19:23;94547.09;;;21.56;nan
23166;BME280;11751;42.700;24.170;2023-10-09T11:22:08;94551.22;;;21.32;nan
23166;BME280;11751;42.700;24.170;2023-10-09T11:24:39;94535.13;;;21.37;nan
23166;BME280;11751;42.700;24.170;2023-10-09T11:27:09;94524.03;;;21.63;nan
23166;BME280;11751;42.700;24.170;2023-10-09T11:29:52;94517.81;;;21.55;nan
23166;BME280;11751;42.700;24.170;2023-10-09T11:32:19;94518.41;;;21.31;nan
23166;BME280;11751;42.700;24.170;2023-10-09T11:35:09;94501.09;;;21.27;nan
23166;BME280;11751;42.700;24.170;2023-10-09T11:37:55;94500.81;;;21.23;nan
23166;BME280;11751;42.700;24.170;2023-10-09T11:40:31;94490.19;;;21.35;nan
23166;BME280;11751;42.700;24.170;2023-10-09T11:43:16;94479.53;;;21.24;nan
23166;BME280;11751;42.700;24.170;2023-10-09T11:45:48;94493.78;;;21.47;nan
23166;BME280;11751;42.700;24.170;2023-10-09T11:48:21;94489.56;;;21.48;nan
23166;BME280;11751;42.700;24.170;2023-10-09T11:50:58;94482.88;;;21.32;nan
23166;BME280;11751;42.700;24.170;2023-10-09T11:53:59;94481.00;;;21.25;nan
23166;BME280;11751;42.700;24.170;2023-10-09T11:56:25;94477.16;;;21.32;nan
23166;BME280;11751;42.700;24.170;2023-10-09T11:58:52;94488.94;;;21.38;nan
23166;BME280;11751;42.700;24.170;2023-10-09T12:01:19;94471.34;;;21.30;nan
23166;BME280;11751;42.700;24.170;2023-10-09T12:03:47;94468.50;;;21.53;nan
23166;BME280;11751;42.700;24.170;2023-10-09T12:06:16;94473.47;;;21.64;nan
23166;BME280;11751;42.700;24.170;2023-10-09T12:08:44;94470.47;;;21.73;nan
23166;BME280;11751;42.700;24.170;2023-10-09T12:11:12;94469.97;;;21.77;nan
23166;BME280;11751;42.700;24.170;2023-10-09T12:13:39;94466.78;;;21.59;nan
23166;BME280;11751;42.700;24.170;2023-10-09T12:16:08;94465.16;;;21.68;nan
23166;BME280;11751;42.700;24.170;2023-10-09T12:18:36;94464.06;;;21.61;nan
23166;BME280;11751;42.700;24.170;2023-10-09T12:21:05;94454.47;;;21.80;nan
23166;BME280;11751;42.700;24.170;2023-10-09T12:23:32;94450.38;;;21.83;nan
23166;BME280;11751;42.700;24.170;2023-10-09T12:26:03;94437.50;;;21.82;nan
23166;BME280;11751;42.700;24.170;2023-10-09T12:28:29;94436.59;;;21.91;nan
23166;BME280;11751;42.700;24.170;2023-10-09T12:30:59;94444.38;;;22.02;nan
23166;BME280;11751;42.700;24.170;2023-10-09T12:33:27;94439.19;;;21.98;nan
23166;BME280;11751;42.700;24.170;2023-10-09T12:35:54;94433.22;;;22.06;nan
23166;BME280;11751;42.700;24.170;2023-10-09T12:38:26;94431.91;;;21.84;nan
23166;BME280;11751;42.700;24.170;2023-10-09T12:41:06;94442.53;;;21.95;nan
23166;BME280;11751;42.700;24.170;2023-10-09T12:43:49;94425.44;;;21.95;nan
23166;BME280;11751;42.700;24.170;2023-10-09T12:46:15;94427.09;;;21.75;nan
23166;BME280;11751;42.700;24.170;2023-10-09T12:48:51;94414.47;;;21.66;nan
23166;BME280;11751;42.700;24.170;2023-10-09T12:51:19;94423.19;;;21.57;nan
23166;BME280;11751;42.700;24.170;2023-10-09T12:53:46;94424.88;;;21.62;nan
23166;BME280;11751;42.700;24.170;2023-10-09T12:56:14;94426.13;;;21.59;nan
23166;BME280;11751;42.700;24.170;2023-10-09T12:58:41;94419.78;;;21.49;nan
23166;BME280;11751;42.700;24.170;2023-10-09T13:01:18;94411.50;;;21.53;nan
23166;BME280;11751;42.700;24.170;2023-10-09T13:03:44;94408.53;;;21.51;nan
23166;BME280;11751;42.700;24.170;2023-10-09T13:06:14;94411.75;;;21.68;nan
23166;BME280;11751;42.700;24.170;2023-10-09T13:08:40;94408.50;;;21.74;nan
23166;BME280;11751;42.700;24.170;2023-10-09T13:11:09;94396.34;;;21.85;nan
23166;BME280;11751;42.700;24.170;2023-10-09T13:13:36;94385.69;;;21.74;nan
23166;BME280;11751;42.700;24.170;2023-10-09T13:16:22;94377.66;;;21.70;nan
23166;BME280;11751;42.700;24.170;2023-10-09T13:18:55;94386.25;;;21.36;nan
23166;BME280;11751;42.700;24.170;2023-10-09T13:21:28;94387.75;;;21.37;nan
23166;BME280;11751;42.700;24.170;2023-10-09T13:23:59;94389.22;;;21.27;nan
23166;BME280;11751;42.700;24.170;2023-10-09T13:26:28;94380.66;;;21.50;nan
23166;BME280;11751;42.700;24.170;2023-10-09T13:28:56;94377.56;;;21.46;nan
23166;BME280;11751;42.700;24.170;2023-10-09T13:31:23;94372.91;;;21.27;nan
23166;BME280;11751;42.700;24.170;2023-10-09T13:33:55;94363.22;;;21.32;nan
23166;BME280;11751;42.700;24.170;2023-10-09T13:36:22;94362.72;;;21.24;nan
23166;BME280;11751;42.700;24.170;2023-10-09T13:39:07;94368.44;;;21.24;nan
23166;BME280;11751;42.700;24.170;2023-10-09T13:41:55;94360.75;;;21.27;nan
23166;BME280;11751;42.700;24.170;2023-10-09T13:44:25;94346.13;;;21.32;nan
23166;BME280;11751;42.700;24.170;2023-10-09T13:46:53;94346.13;;;21.32;nan
23166;BME280;11751;42.700;24.170;2023-10-09T13:49:19;94350.47;;;21.33;nan
23166;BME280;11751;42.700;24.170;2023-10-09T13:51:47;94352.56;;;21.21;nan
23166;BME280;11751;42.700;24.170;2023-10-09T13:54:15;94358.88;;;21.31;nan
23166;BME280;11751;42.700;24.170;2023-10-09T13:56:54;94359.53;;;21.18;nan
23166;BME280;11751;42.700;24.170;2023-10-09T13:59:20;94352.59;;;21.10;nan
23166;BME280;11751;42.700;24.170;2023-10-09T14:01:51;94349.84;;;21.23;nan
23166;BME280;11751;42.700;24.170;2023-10-09T14:04:23;94351.88;;;21.09;nan
23166;BME280;11751;42.700;24.170;2023-10-09T14:06:52;94350.63;;;21.12;nan